map of SSH home
Great Circle Mapper logo
SSH - Airport
Location
City:  Sharm el-Sheikh, Egypt
Near (Alt.):Ras Nasrani
Name:Sharm el-Sheikh International Airport
Old (Alt.):Ophira International Airport
ICAO / IATA:HESH / SSH

Details
Type:Airport (Aerodrome, Airfield)
Use:Public/Civil, International (customs port of entry)
Latitude:2758'38"N (27.977286)
Longitude:3423'42"E (34.394950)
Datum:WGS 1984
Elevation:143 ft (44 m)
Runways:2
Longest:10108 × 148 ft (3081 × 45 m), paved

Time
Time Zone:UTC+2
Local Time:

Weather
METAR:HESH 210900Z 02014KT CAVOK 36/22 Q1008 NOSIG
TAF:HESH 210500Z 2106/2212 02012G22KT CAVOK

Related Locations
Nearby:
Farthest:NTAV: 12123 mi / 19510 km
Raivavae, Tubuai Islands, Austral Islands, PF

Find:

   beyond  
but within

Other Information
Maps:
NOTAMs:
Links:
Sources:

  
flag of Egypt   

Sectional Chart

Flight Planning
at skyvector.com

Satellite Image

Google Maps Satellite View

 

Copyright © 2004-2014 Karl L. Swartz. All rights reserved.
The Great Circle Mapper name and logo are trademarks of the Great Circle Mapper.
All other trademarks mentioned herein belong to their respective owners.
Please see credits for attibutions and further copyright information.

  Follow gcmap on Facebook Follow gcmap on Twitter

hCard Microformat

Geo Microformat